Standard City, Illinois
Current Conditions -  °F | °C
As of 7:55 PM on Monday 24 Nov 2014 (Local Time) from K3LF Reporting Station
Overcast Overcast  
Wind Chill: 26°   Ceiling: 8000
Heat Index: 35°   Visibility: 10mi
Dew Point: 27°   Wind: 14mph
Humidity: 73%   Direction: 270°W
Pressure: 29.92"   Gusts: 20mph
Location:  39.35°N, 89.78°W
Report Text: K3LF 250155Z AUTO 27012G17KT 10SM SCT035 OVC080 02/M03 A2992 RMK AO2 T00171026
Loading
Personal Weather Stations






























Interactive Weather Map New forecast layout! Learn more

10-Day Weather Forecast

Advertisements
Track Severe Weather on mobile